KFDK/FDK METAR and TAF weather

Enter ICAO airport designator
Station Type Date Time Source
KFDK METAR 2020/07/14 22:47 UTC NOAA

KFDK 142247Z 30004KT 10SM SKC 31/12 A3002


Station Type Date Time Source
KFDK Decoded METAR 2020/07/14 22:47 UTC NOAA

Frederick, Frederick Municipal Airport, MD, United States (KFDK) 39-25-03N 077-22-28W
Jul 14, 2020 - 06:47 PM EDT / 2020.07.14 2247 UTC
Wind: from the WNW (300 degrees) at 5 MPH (4 KT):0
Visibility: 10 mile(s):0
Sky conditions: clear
Temperature: 87 F (31 C)
Dew Point: 53 F (12 C)
Relative Humidity: 31%
Pressure (altimeter): 30.02 in. Hg (1016 hPa)
ob: KFDK 142247Z 30004KT 10SM SKC 31/12 A3002
cycle: 23

Station Type Date Time Source
KFDK TAF UTC NOAA

Error!

Example: see airport list